Time;durP1;ratioP1;P1;durP2;ratioP2;P2;SDS_P1;SDS_P2;PMS_P1;PMS_P2;Temp;Humidity;BMP_temperature;BMP_pressure;BME280_temperature;BME280_humidity;BME280_pressure;Samples;Min_cycle;Max_cycle;Signal;HPM_P1;HPM_P2
2022/11/23 00:01:31;;;;;;;4.10;0.90;;;7.80;99.90;;;;;;4889144;29;20033;-78
2022/11/23 00:04:00;;;;;;;2.35;0.40;;;7.80;99.90;;;;;;4885151;29;20037;-81
2022/11/23 00:06:26;;;;;;;3.13;0.50;;;7.80;99.90;;;;;;4889007;29;20029;-78
2022/11/23 00:08:52;;;;;;;2.30;0.50;;;7.80;99.90;;;;;;4887317;29;20037;-81
2022/11/23 00:11:20;;;;;;;2.22;0.63;;;7.90;99.90;;;;;;4903700;29;21002;-79
2022/11/23 00:13:46;;;;;;;4.18;0.52;;;7.80;99.90;;;;;;4901967;29;20104;-81
2022/11/23 00:16:20;;;;;;;4.00;0.70;;;7.80;99.90;;;;;;4889195;29;20025;-81
2022/11/23 00:18:46;;;;;;;4.18;0.57;;;7.90;99.90;;;;;;4889000;29;20120;-79
2022/11/23 00:21:14;;;;;;;1.50;0.38;;;7.80;99.90;;;;;;4888963;29;20025;-79
2022/11/23 00:23:40;;;;;;;1.98;0.60;;;7.80;99.90;;;;;;4886515;29;20037;-83
2022/11/23 00:26:06;;;;;;;2.67;0.55;;;7.90;99.90;;;;;;4902189;29;20116;-79
2022/11/23 00:28:33;;;;;;;2.85;0.63;;;7.90;99.90;;;;;;4891464;29;20164;-80
2022/11/23 00:30:59;;;;;;;3.60;0.80;;;7.80;99.90;;;;;;4887788;29;20040;-82
2022/11/23 00:33:25;;;;;;;2.53;0.73;;;7.90;99.90;;;;;;4870245;29;20036;-79
2022/11/23 00:36:04;;;;;;;3.20;1.27;;;7.90;99.90;;;;;;4871518;29;20028;-83
2022/11/23 00:38:30;;;;;;;3.40;1.08;;;7.90;99.90;;;;;;4906114;29;20507;-83
2022/11/23 00:41:00;;;;;;;4.95;2.55;;;7.90;99.90;;;;;;4892262;29;20033;-80
2022/11/23 00:43:27;;;;;;;6.03;2.75;;;7.90;99.90;;;;;;4895871;29;20028;-81
2022/11/23 00:46:06;;;;;;;4.57;2.17;;;7.90;99.90;;;;;;4892088;29;20040;-81
2022/11/23 00:48:32;;;;;;;2.65;1.85;;;7.90;99.90;;;;;;4892527;29;20027;-79
2022/11/23 00:51:00;;;;;;;5.25;2.50;;;8.00;99.90;;;;;;4891206;29;20029;-83
2022/11/23 00:53:26;;;;;;;5.82;2.38;;;8.00;99.90;;;;;;4893163;29;20032;-83
2022/11/23 00:55:54;;;;;;;3.03;1.30;;;8.00;99.90;;;;;;4889308;29;20028;-80
2022/11/23 00:58:20;;;;;;;2.40;0.93;;;8.00;99.90;;;;;;4901663;29;20025;-79
2022/11/23 01:00:46;;;;;;;4.82;1.27;;;8.00;99.90;;;;;;4875296;29;20036;-77
2022/11/23 01:03:12;;;;;;;6.30;1.13;;;8.00;99.90;;;;;;4894893;29;20478;-79
2022/11/23 01:05:38;;;;;;;5.45;2.10;;;8.00;99.90;;;;;;4876310;29;20067;-83
2022/11/23 01:08:04;;;;;;;8.73;1.92;;;8.00;99.90;;;;;;4891713;29;20060;-78
2022/11/23 01:10:31;;;;;;;2.58;1.20;;;8.00;99.90;;;;;;4891574;29;20570;-78
2022/11/23 01:12:57;;;;;;;6.95;3.33;;;8.00;99.90;;;;;;4889412;29;20045;-77
2022/11/23 01:15:23;;;;;;;5.25;1.85;;;8.00;99.90;;;;;;4874741;29;20528;-81
2022/11/23 01:17:51;;;;;;;4.88;2.50;;;8.00;99.90;;;;;;4900240;29;20032;-79
2022/11/23 01:20:17;;;;;;;5.20;2.80;;;8.00;99.90;;;;;;4875377;29;20036;-80
2022/11/23 01:22:43;;;;;;;6.20;3.10;;;8.00;99.90;;;;;;4891948;29;20358;-78
2022/11/23 01:25:08;;;;;;;9.07;3.55;;;8.00;99.90;;;;;;4889158;29;20124;-79
2022/11/23 01:27:36;;;;;;;5.57;2.53;;;8.00;99.90;;;;;;4894457;29;20031;-83
2022/11/23 01:30:02;;;;;;;6.88;2.42;;;8.00;99.90;;;;;;4875454;29;20029;-78
2022/11/23 01:32:28;;;;;;;6.63;3.05;;;8.00;99.90;;;;;;4890799;29;20124;-79
2022/11/23 01:34:56;;;;;;;4.75;2.83;;;8.10;99.90;;;;;;4905759;29;20028;-79
2022/11/23 01:37:21;;;;;;;5.15;2.65;;;8.00;99.90;;;;;;4905705;29;20063;-79
2022/11/23 01:39:47;;;;;;;5.65;1.95;;;8.00;99.90;;;;;;4874695;29;20036;-80
2022/11/23 01:42:13;;;;;;;6.00;2.60;;;8.10;99.90;;;;;;4893555;29;20496;-78
2022/11/23 01:44:40;;;;;;;7.40;3.20;;;8.10;99.90;;;;;;4891606;29;20024;-84
2022/11/23 01:47:08;;;;;;;5.18;2.00;;;8.10;99.90;;;;;;4875082;29;20434;-78
2022/11/23 01:49:43;;;;;;;5.93;2.70;;;8.10;99.90;;;;;;4888739;29;20111;-84
2022/11/23 01:52:14;;;;;;;7.10;2.33;;;8.10;99.90;;;;;;4888041;29;20048;-80
2022/11/23 01:54:47;;;;;;;3.83;2.13;;;8.10;99.90;;;;;;4904735;29;20032;-81
2022/11/23 01:57:20;;;;;;;8.10;2.53;;;8.10;99.90;;;;;;4886088;29;20037;-81
2022/11/23 01:59:47;;;;;;;6.47;2.08;;;8.10;99.90;;;;;;4891206;29;20032;-79
2022/11/23 02:02:14;;;;;;;3.70;1.48;;;8.10;99.90;;;;;;4888518;29;20028;-78
2022/11/23 02:04:43;;;;;;;4.63;1.60;;;8.10;99.90;;;;;;4879110;29;20025;-79
2022/11/23 02:07:15;;;;;;;6.32;1.85;;;8.10;99.90;;;;;;4894583;29;20047;-80
2022/11/23 02:09:41;;;;;;;5.53;1.50;;;8.10;99.90;;;;;;4905531;29;20033;-83
2022/11/23 02:12:12;;;;;;;6.68;1.58;;;8.10;99.90;;;;;;4888943;29;20051;-80
2022/11/23 02:14:38;;;;;;;4.05;1.40;;;8.10;99.90;;;;;;4893960;29;20031;-79
2022/11/23 02:17:04;;;;;;;2.85;1.27;;;8.10;99.90;;;;;;4892502;29;20033;-79
2022/11/23 02:19:42;;;;;;;4.25;1.52;;;8.10;99.90;;;;;;4891779;29;20495;-81
2022/11/23 02:22:21;;;;;;;5.68;1.10;;;8.10;99.90;;;;;;4889583;29;20025;-82
2022/11/23 02:24:52;;;;;;;4.45;0.80;;;8.10;99.90;;;;;;4890667;29;20029;-83
2022/11/23 02:27:18;;;;;;;5.43;0.70;;;8.10;99.90;;;;;;4890112;29;20077;-78
2022/11/23 02:29:46;;;;;;;3.78;0.60;;;8.10;99.90;;;;;;4888831;29;20040;-81
2022/11/23 02:32:17;;;;;;;4.97;0.65;;;8.00;99.90;;;;;;4888910;29;20464;-86
2022/11/23 02:34:45;;;;;;;2.30;0.55;;;8.10;99.90;;;;;;4904837;29;20037;-79
2022/11/23 02:37:10;;;;;;;4.68;0.50;;;8.10;99.90;;;;;;4874424;29;20135;-79
2022/11/23 02:39:40;;;;;;;3.08;0.47;;;8.10;99.90;;;;;;4890560;29;20110;-81
2022/11/23 02:42:07;;;;;;;3.28;0.50;;;8.00;99.90;;;;;;4905145;29;20029;-81
2022/11/23 02:44:51;;;;;;;4.22;0.50;;;7.90;99.90;;;;;;4889354;29;20048;-82
2022/11/23 02:47:17;;;;;;;4.70;0.50;;;7.90;99.90;;;;;;4890947;29;20060;-78
2022/11/23 02:49:46;;;;;;;3.90;0.50;;;7.80;99.90;;;;;;4890821;29;20055;-81
2022/11/23 02:52:12;;;;;;;4.20;0.70;;;7.90;99.90;;;;;;4903613;29;20044;-83
2022/11/23 02:54:37;;;;;;;2.95;0.70;;;7.90;99.90;;;;;;4891139;29;20497;-82
2022/11/23 02:57:04;;;;;;;3.28;0.50;;;8.00;99.90;;;;;;4887381;29;20097;-82
2022/11/23 02:59:32;;;;;;;4.22;0.70;;;7.90;99.90;;;;;;4875946;29;20031;-80
2022/11/23 03:02:04;;;;;;;4.00;0.60;;;7.90;99.90;;;;;;4905043;29;20032;-81
2022/11/23 03:04:30;;;;;;;2.05;0.50;;;8.00;99.90;;;;;;4904123;29;20039;-86
2022/11/23 03:06:56;;;;;;;4.97;0.65;;;8.00;99.90;;;;;;4891146;29;20040;-81
2022/11/23 03:09:24;;;;;;;1.95;0.50;;;7.90;99.90;;;;;;4896918;29;20377;-82
2022/11/23 03:11:53;;;;;;;3.42;0.50;;;8.00;99.90;;;;;;4888490;29;20032;-79
2022/11/23 03:14:20;;;;;;;5.78;0.80;;;7.90;99.90;;;;;;4874495;29;20089;-80
2022/11/23 03:16:50;;;;;;;4.60;0.40;;;8.00;99.90;;;;;;4878099;29;20056;-79
2022/11/23 03:19:17;;;;;;;2.10;0.40;;;8.00;99.90;;;;;;4899551;29;20063;-83
2022/11/23 03:21:43;;;;;;;4.03;0.50;;;8.00;99.90;;;;;;4890168;29;20033;-81
2022/11/23 03:24:08;;;;;;;3.22;0.40;;;7.90;99.90;;;;;;4899772;29;20456;-79
2022/11/23 03:26:35;;;;;;;4.65;0.60;;;7.80;99.90;;;;;;4899100;29;20036;-82
2022/11/23 03:29:09;;;;;;;2.97;0.40;;;7.80;99.90;;;;;;4891439;29;20020;-81
2022/11/23 03:31:36;;;;;;;3.35;0.40;;;7.70;99.90;;;;;;4900270;29;20119;-85
2022/11/23 03:34:04;;;;;;;2.10;0.43;;;7.60;99.90;;;;;;4876480;29;20024;-79
2022/11/23 03:36:31;;;;;;;2.72;0.40;;;7.60;99.90;;;;;;4904114;29;20139;-81
2022/11/23 03:38:58;;;;;;;2.25;0.32;;;7.70;99.90;;;;;;4898597;29;20536;-78
2022/11/23 03:41:44;;;;;;;2.22;0.50;;;7.70;99.90;;;;;;4886499;29;20116;-78
2022/11/23 03:44:09;;;;;;;3.17;0.40;;;7.80;99.90;;;;;;4904606;29;20160;-78
2022/11/23 03:46:35;;;;;;;1.95;0.22;;;7.80;99.90;;;;;;4891670;29;20036;-81
2022/11/23 03:49:01;;;;;;;2.92;0.30;;;7.70;99.90;;;;;;4873120;29;20033;-79
2022/11/23 03:51:27;;;;;;;2.17;0.30;;;7.80;99.90;;;;;;4874352;29;20039;-79
2022/11/23 03:53:53;;;;;;;3.03;0.30;;;7.80;99.90;;;;;;4903378;29;20045;-79
2022/11/23 03:56:19;;;;;;;2.35;0.30;;;7.80;99.90;;;;;;4872523;29;20424;-85
2022/11/23 03:58:45;;;;;;;3.17;0.28;;;7.80;99.90;;;;;;4870032;29;20127;-78
2022/11/23 04:01:13;;;;;;;2.25;0.30;;;7.80;99.90;;;;;;4890290;29;20196;-79
2022/11/23 04:03:39;;;;;;;2.65;0.30;;;7.80;99.90;;;;;;4891135;29;20029;-82
2022/11/23 04:06:19;;;;;;;1.67;0.30;;;7.80;99.90;;;;;;4902230;29;20120;-79
2022/11/23 04:08:56;;;;;;;4.68;0.20;;;7.80;99.90;;;;;;4872292;29;20036;-81
2022/11/23 04:11:41;;;;;;;3.72;0.40;;;7.80;99.90;;;;;;4889613;29;20048;-80
2022/11/23 04:14:07;;;;;;;2.97;0.30;;;7.90;99.90;;;;;;4891148;29;20172;-79
2022/11/23 04:16:33;;;;;;;2.15;0.30;;;7.90;99.90;;;;;;4872341;29;20330;-84
2022/11/23 04:19:00;;;;;;;2.13;0.30;;;7.90;99.90;;;;;;4898554;29;20028;-80
2022/11/23 04:21:26;;;;;;;2.47;0.30;;;8.00;99.90;;;;;;4889705;29;20505;-79
2022/11/23 04:23:51;;;;;;;2.53;0.40;;;8.00;99.90;;;;;;4876320;29;20378;-80
2022/11/23 04:26:18;;;;;;;8.40;0.88;;;8.00;99.90;;;;;;4903599;29;20052;-79
2022/11/23 04:28:45;;;;;;;8.05;0.57;;;8.00;99.90;;;;;;4897226;29;20164;-78
2022/11/23 04:31:11;;;;;;;4.97;0.60;;;8.00;99.90;;;;;;4903979;29;20193;-82
2022/11/23 04:33:48;;;;;;;5.45;0.70;;;8.00;99.90;;;;;;4873191;29;20029;-81
2022/11/23 04:36:16;;;;;;;3.33;0.50;;;8.00;99.90;;;;;;4891072;29;20424;-84
2022/11/23 04:38:42;;;;;;;4.18;0.80;;;8.00;99.90;;;;;;4887982;29;20033;-85
2022/11/23 04:41:09;;;;;;;4.45;1.05;;;8.00;99.90;;;;;;4876050;29;20165;-80
2022/11/23 04:43:34;;;;;;;4.75;0.57;;;8.00;99.90;;;;;;4875186;29;20029;-81
2022/11/23 04:46:01;;;;;;;4.97;0.60;;;8.00;99.90;;;;;;4904209;29;20108;-79
2022/11/23 04:48:29;;;;;;;2.17;0.40;;;8.00;99.90;;;;;;4871851;29;20032;-81
2022/11/23 04:50:56;;;;;;;2.72;0.40;;;8.00;99.90;;;;;;4886878;29;20037;-77
2022/11/23 04:53:28;;;;;;;3.28;0.50;;;8.00;99.90;;;;;;4889424;29;20041;-80
2022/11/23 04:55:54;;;;;;;3.00;0.30;;;8.00;99.90;;;;;;4890059;29;20255;-81
2022/11/23 04:58:21;;;;;;;2.15;0.40;;;8.00;99.90;;;;;;4886073;29;20180;-78
2022/11/23 05:00:51;;;;;;;;;;;8.00;99.90;;;;;;4903790;29;20076;-80
2022/11/23 05:03:18;;;;;;;2.92;0.40;;;7.90;99.90;;;;;;4872038;29;20318;-79
2022/11/23 05:05:43;;;;;;;2.80;0.40;;;8.00;99.90;;;;;;4885958;29;20112;-80
2022/11/23 05:08:09;;;;;;;4.70;0.30;;;7.90;99.90;;;;;;4872792;29;20048;-82
2022/11/23 05:10:59;;;;;;;2.30;0.60;;;8.00;99.90;;;;;;4900394;29;20469;-83
2022/11/23 05:13:25;;;;;;;2.78;0.40;;;8.00;99.90;;;;;;4900308;29;20039;-84
2022/11/23 05:15:50;;;;;;;6.32;1.23;;;7.90;99.90;;;;;;4887880;29;20036;-80
2022/11/23 05:18:22;;;;;;;2.70;0.40;;;8.00;99.90;;;;;;4904138;29;20033;-81
2022/11/23 05:20:49;;;;;;;4.70;0.30;;;8.00;99.90;;;;;;4902419;29;20048;-84
2022/11/23 05:23:15;;;;;;;4.28;0.50;;;8.00;99.90;;;;;;4874104;29;20108;-78
2022/11/23 05:25:43;;;;;;;3.85;0.75;;;7.90;99.90;;;;;;4903464;29;20039;-81
2022/11/23 05:28:16;;;;;;;4.95;0.40;;;8.00;99.90;;;;;;4907239;29;20123;-80
2022/11/23 05:30:41;;;;;;;1.40;0.40;;;8.00;99.90;;;;;;4908016;29;20029;-79
2022/11/23 05:33:07;;;;;;;4.22;0.40;;;8.00;99.90;;;;;;4875701;29;20097;-78
2022/11/23 05:35:34;;;;;;;3.17;0.40;;;8.00;99.90;;;;;;4890202;29;20495;-80
2022/11/23 05:38:00;;;;;;;6.10;0.43;;;8.00;99.90;;;;;;4878988;29;20048;-81
2022/11/23 05:40:26;;;;;;;3.63;0.57;;;8.00;99.90;;;;;;4890130;29;20056;-80
2022/11/23 05:42:59;;;;;;;6.75;0.70;;;8.00;99.90;;;;;;4873019;29;20365;-81
2022/11/23 05:45:26;;;;;;;4.55;0.30;;;8.00;99.90;;;;;;4908685;29;20040;-80
2022/11/23 05:47:56;;;;;;;5.05;0.40;;;8.00;99.90;;;;;;4889793;29;20404;-82
2022/11/23 05:50:49;;;;;;;4.80;0.40;;;8.00;99.90;;;;;;4899461;29;20510;-83
2022/11/23 05:53:35;;;;;;;3.05;0.32;;;7.90;99.90;;;;;;4877684;29;20047;-80
2022/11/23 05:56:27;;;;;;;4.22;0.40;;;8.00;99.90;;;;;;4887629;29;20032;-82
2022/11/23 05:59:13;;;;;;;7.93;0.70;;;8.00;99.90;;;;;;4887221;29;20057;-80
2022/11/23 06:01:42;;;;;;;2.88;0.85;;;8.00;99.90;;;;;;4882380;29;20067;-83
2022/11/23 06:04:09;;;;;;;4.68;0.40;;;7.90;99.90;;;;;;4876054;29;20025;-79
2022/11/23 06:06:40;;;;;;;;;;;8.00;99.90;;;;;;4895336;29;20060;-82
2022/11/23 06:09:05;;;;;;;3.85;0.60;;;8.00;99.90;;;;;;4889775;29;19962;-81
2022/11/23 06:11:34;;;;;;;6.13;0.43;;;7.90;99.90;;;;;;4889858;29;20112;-81
2022/11/23 06:14:05;;;;;;;5.10;0.50;;;8.00;99.90;;;;;;4894453;29;20037;-79
2022/11/23 06:16:31;;;;;;;5.15;0.40;;;8.00;99.90;;;;;;4888267;29;20437;-82
2022/11/23 06:19:08;;;;;;;6.65;0.50;;;8.00;99.90;;;;;;4904586;29;20500;-81
2022/11/23 06:21:38;;;;;;;5.72;0.40;;;8.00;99.90;;;;;;4870793;29;20198;-79
2022/11/23 06:24:05;;;;;;;9.30;0.50;;;8.00;99.90;;;;;;4891343;29;20096;-79
2022/11/23 06:26:31;;;;;;;6.57;0.77;;;8.00;99.90;;;;;;4873806;29;20125;-79
2022/11/23 06:28:57;;;;;;;4.90;0.50;;;7.90;99.90;;;;;;4902356;29;20488;-81
2022/11/23 06:31:23;;;;;;;8.68;0.65;;;7.90;99.90;;;;;;4876361;29;20037;-79
2022/11/23 06:33:50;;;;;;;4.15;0.40;;;7.90;99.90;;;;;;4876042;29;20040;-81
2022/11/23 06:36:16;;;;;;;7.63;0.40;;;7.90;99.90;;;;;;4873644;29;20064;-82
2022/11/23 06:38:47;;;;;;;;;;;7.80;99.90;;;;;;4893853;29;20039;-78
2022/11/23 06:41:16;;;;;;;6.07;0.57;;;7.80;99.90;;;;;;4897104;29;19926;-77
2022/11/23 06:43:45;;;;;;;6.88;0.50;;;7.80;99.90;;;;;;4895180;29;20024;-81
2022/11/23 06:46:16;;;;;;;6.43;0.70;;;7.80;99.90;;;;;;4875135;29;20032;-82
2022/11/23 06:48:43;;;;;;;6.00;0.60;;;7.70;99.90;;;;;;4873245;29;20124;-79
2022/11/23 06:51:10;;;;;;;3.92;0.40;;;7.80;99.90;;;;;;4871162;29;20112;-77
2022/11/23 06:53:36;;;;;;;4.80;0.32;;;7.80;99.90;;;;;;4873521;29;20033;-80
2022/11/23 06:56:05;;;;;;;5.15;0.40;;;7.80;99.90;;;;;;4891503;29;20049;-80
2022/11/23 06:58:31;;;;;;;3.50;0.30;;;7.80;99.90;;;;;;4879860;29;20028;-79
2022/11/23 07:01:00;;;;;;;4.32;0.40;;;7.80;99.90;;;;;;4884029;29;20035;-78
2022/11/23 07:03:28;;;;;;;3.88;0.63;;;7.80;99.90;;;;;;4886182;29;20168;-82
2022/11/23 07:06:07;;;;;;;4.25;0.28;;;7.80;99.90;;;;;;4872285;29;20654;-82
2022/11/23 07:08:35;;;;;;;5.35;0.30;;;7.90;99.90;;;;;;4877137;29;20516;-80
2022/11/23 07:11:14;;;;;;;5.03;0.35;;;7.80;99.90;;;;;;4891613;29;20029;-79
2022/11/23 07:13:40;;;;;;;6.60;0.32;;;7.80;99.90;;;;;;4905342;29;20076;-80
2022/11/23 07:16:06;;;;;;;4.53;0.40;;;7.80;99.90;;;;;;4875392;29;20025;-78
2022/11/23 07:18:32;;;;;;;3.58;0.38;;;7.80;99.90;;;;;;4891833;29;20052;-79
2022/11/23 07:21:00;;;;;;;6.10;0.40;;;7.80;99.90;;;;;;4886598;29;20028;-88
2022/11/23 07:23:26;;;;;;;2.35;0.30;;;7.80;99.90;;;;;;4871758;29;20505;-85
2022/11/23 07:25:52;;;;;;;4.55;0.30;;;7.80;99.90;;;;;;4890533;29;20505;-82
2022/11/23 07:28:17;;;;;;;3.78;0.30;;;7.80;99.90;;;;;;4873466;29;20536;-82
2022/11/23 07:30:43;;;;;;;2.42;0.20;;;7.80;99.90;;;;;;4875823;29;20103;-81
2022/11/23 07:33:11;;;;;;;6.13;0.30;;;7.70;99.90;;;;;;4902835;29;20135;-80
2022/11/23 07:35:39;;;;;;;4.05;0.30;;;7.70;99.90;;;;;;4893603;29;20028;-83
2022/11/23 07:38:06;;;;;;;9.98;0.70;;;7.80;99.90;;;;;;4886384;29;20111;-83
2022/11/23 07:40:35;;;;;;;3.83;0.40;;;7.80;99.90;;;;;;4875616;29;20025;-83
2022/11/23 07:43:02;;;;;;;4.15;0.30;;;7.80;99.90;;;;;;4889776;29;20025;-79
2022/11/23 07:45:28;;;;;;;6.22;0.50;;;7.80;99.90;;;;;;4894428;29;20029;-81
2022/11/23 07:48:03;;;;;;;3.30;0.20;;;7.80;99.90;;;;;;4873640;29;20112;-81
2022/11/23 07:50:29;;;;;;;3.08;0.28;;;7.80;99.90;;;;;;4899609;29;20120;-81
2022/11/23 07:52:55;;;;;;;5.93;0.30;;;7.80;99.90;;;;;;4888027;29;20080;-81
2022/11/23 07:55:22;;;;;;;4.10;0.30;;;7.80;99.90;;;;;;4902297;29;20127;-81
2022/11/23 07:57:52;;;;;;;6.05;0.30;;;7.80;99.90;;;;;;4868440;29;20052;-80
2022/11/23 08:00:19;;;;;;;4.28;0.30;;;7.80;99.90;;;;;;4888327;29;20021;-78
2022/11/23 08:02:44;;;;;;;5.65;0.40;;;7.80;99.90;;;;;;4872111;29;20041;-80
2022/11/23 08:05:10;;;;;;;5.38;0.30;;;7.80;99.90;;;;;;4888053;29;20036;-78
2022/11/23 08:07:36;;;;;;;3.40;0.40;;;7.80;99.90;;;;;;4872812;29;20484;-80
2022/11/23 08:10:02;;;;;;;4.65;0.25;;;7.80;99.90;;;;;;4887192;29;20035;-79
2022/11/23 08:12:27;;;;;;;3.60;0.20;;;7.80;99.90;;;;;;4889458;29;20044;-80
2022/11/23 08:14:53;;;;;;;4.32;0.25;;;7.80;99.90;;;;;;4888895;29;20024;-80
2022/11/23 08:17:18;;;;;;;3.40;0.47;;;7.80;99.90;;;;;;4888087;29;20385;-83
2022/11/23 08:19:44;;;;;;;4.00;0.30;;;7.80;99.90;;;;;;4890198;29;20064;-78
2022/11/23 08:22:10;;;;;;;2.83;0.20;;;7.80;99.90;;;;;;4872711;29;20032;-82
2022/11/23 08:24:35;;;;;;;2.70;0.25;;;7.80;99.90;;;;;;4903275;29;20037;-78
2022/11/23 08:27:01;;;;;;;2.65;0.40;;;7.80;99.90;;;;;;4904578;29;20035;-81
2022/11/23 08:29:28;;;;;;;6.25;0.30;;;7.90;99.90;;;;;;4889660;29;20024;-80
2022/11/23 08:31:53;;;;;;;2.58;0.30;;;7.90;99.90;;;;;;4898821;29;20127;-81
2022/11/23 08:34:19;;;;;;;2.80;0.20;;;8.00;99.90;;;;;;4903612;29;20128;-78
2022/11/23 08:36:45;;;;;;;4.95;0.50;;;7.90;99.90;;;;;;4886955;29;20096;-79
2022/11/23 08:39:11;;;;;;;2.88;0.30;;;8.00;99.90;;;;;;4889739;29;20032;-78
2022/11/23 08:41:37;;;;;;;5.40;0.40;;;8.00;99.90;;;;;;4891385;29;20029;-83
2022/11/23 08:44:03;;;;;;;5.07;0.30;;;8.10;99.90;;;;;;4887431;29;20500;-80
2022/11/23 08:46:29;;;;;;;7.38;0.50;;;8.20;99.90;;;;;;4887776;29;20047;-82
2022/11/23 08:48:55;;;;;;;3.75;0.30;;;8.10;99.90;;;;;;4887339;29;20036;-80
2022/11/23 08:51:23;;;;;;;4.00;0.30;;;8.20;99.90;;;;;;4870730;29;20084;-80
2022/11/23 08:53:49;;;;;;;5.78;0.40;;;8.20;99.90;;;;;;4871631;29;20025;-80
2022/11/23 08:56:16;;;;;;;4.47;0.40;;;8.30;99.90;;;;;;4872365;29;20440;-80
2022/11/23 08:58:41;;;;;;;6.22;0.30;;;8.40;99.90;;;;;;4887686;29;20054;-81
2022/11/23 09:01:09;;;;;;;5.05;0.40;;;8.50;99.90;;;;;;4908403;29;20481;-81
2022/11/23 09:03:34;;;;;;;7.50;0.30;;;8.50;99.90;;;;;;4885849;29;20118;-79
2022/11/23 09:06:00;;;;;;;4.97;0.70;;;8.50;99.90;;;;;;4892720;29;20040;-84
2022/11/23 09:08:26;;;;;;;8.75;0.80;;;8.50;99.90;;;;;;4907421;29;20044;-84
2022/11/23 09:10:52;;;;;;;5.20;0.40;;;8.50;99.90;;;;;;4893273;29;20025;-78
2022/11/23 09:13:18;;;;;;;6.68;0.40;;;8.50;99.90;;;;;;4898001;29;20684;-81
2022/11/23 09:15:44;;;;;;;3.35;0.30;;;8.60;99.90;;;;;;4891640;29;20561;-83
2022/11/23 09:18:10;;;;;;;4.88;0.30;;;8.60;99.90;;;;;;4876859;29;20119;-80
2022/11/23 09:20:38;;;;;;;6.55;0.40;;;8.50;99.90;;;;;;4890817;29;20024;-79
2022/11/23 09:23:03;;;;;;;4.68;0.32;;;8.40;99.90;;;;;;4875771;29;20033;-81
2022/11/23 09:25:29;;;;;;;4.57;0.25;;;8.40;99.90;;;;;;4875622;29;20065;-82
2022/11/23 09:27:58;;;;;;;3.45;0.38;;;8.50;99.90;;;;;;4893236;29;21135;-83
2022/11/23 09:30:25;;;;;;;3.30;0.50;;;8.60;99.90;;;;;;4874256;29;20029;-78
2022/11/23 09:32:50;;;;;;;5.97;0.85;;;8.80;99.90;;;;;;4891268;29;20824;-78
2022/11/23 09:35:16;;;;;;;3.63;0.40;;;8.90;99.90;;;;;;4891438;29;20035;-79
2022/11/23 09:37:42;;;;;;;6.75;0.40;;;9.00;99.90;;;;;;4890827;29;20052;-85
2022/11/23 09:40:13;;;;;;;7.10;0.93;;;9.00;99.90;;;;;;4894432;29;20067;-82
2022/11/23 09:42:59;;;;;;;5.20;0.70;;;9.00;99.90;;;;;;4890953;29;20515;-80
2022/11/23 09:45:29;;;;;;;5.80;0.45;;;9.00;99.90;;;;;;4906555;29;20400;-79
2022/11/23 09:48:25;;;;;;;6.85;0.50;;;9.00;99.90;;;;;;4890492;29;20025;-83
2022/11/23 09:51:13;;;;;;;6.13;0.60;;;9.10;99.90;;;;;;4835205;29;20044;-80
2022/11/23 09:53:44;;;;;;;9.00;0.60;;;9.10;99.90;;;;;;4853308;29;20045;-83
2022/11/23 09:56:20;;;;;;;6.40;0.40;;;9.20;99.90;;;;;;4851041;29;20490;-80
2022/11/23 09:58:46;;;;;;;5.70;0.60;;;9.20;99.90;;;;;;4850251;29;20039;-81
2022/11/23 10:01:14;;;;;;;6.00;1.10;;;9.30;99.90;;;;;;4852838;29;20041;-79
2022/11/23 10:03:42;;;;;;;3.17;0.28;;;9.30;99.90;;;;;;4836173;29;20533;-80
2022/11/23 10:06:16;;;;;;;10.38;0.60;;;9.40;99.90;;;;;;4838469;29;20037;-88
2022/11/23 10:08:45;;;;;;;4.25;0.95;;;9.40;99.90;;;;;;4837582;29;20052;-84
2022/11/23 10:11:38;;;;;;;10.32;0.60;;;9.40;99.90;;;;;;4849890;29;20040;-78
2022/11/23 10:14:34;;;;;;;6.05;0.73;;;9.40;99.90;;;;;;4851895;29;20528;-81
2022/11/23 10:17:17;;;;;;;4.60;0.50;;;9.40;99.90;;;;;;4839583;29;20479;-86
2022/11/23 10:19:55;;;;;;;6.80;0.70;;;9.50;99.90;;;;;;4835912;29;20608;-86
2022/11/23 10:22:30;;;;;;;3.08;0.20;;;9.60;99.90;;;;;;4851865;29;20064;-82
2022/11/23 10:24:55;;;;;;;3.25;0.30;;;9.60;99.90;;;;;;4851745;29;20033;-82
2022/11/23 10:27:23;;;;;;;3.95;0.30;;;9.60;99.90;;;;;;4863820;29;20122;-81
2022/11/23 10:29:53;;;;;;;2.58;0.20;;;9.70;99.90;;;;;;4873334;29;20021;-79
2022/11/23 10:32:40;;;;;;;3.60;0.20;;;9.80;99.90;;;;;;4892181;29;20103;-80
2022/11/23 10:35:21;;;;;;;3.75;0.30;;;9.70;99.90;;;;;;4890685;29;20290;-82
2022/11/23 10:37:46;;;;;;;;;;;9.60;99.90;;;;;;4876519;29;20144;-80
2022/11/23 10:40:12;;;;;;;4.53;0.30;;;9.60;99.90;;;;;;4873828;29;19968;-78
2022/11/23 10:42:43;;;;;;;4.82;0.25;;;9.70;99.90;;;;;;4876769;29;20044;-82
2022/11/23 10:45:22;;;;;;;3.75;0.20;;;9.70;99.90;;;;;;4888679;29;20124;-78
2022/11/23 10:47:54;;;;;;;5.72;0.40;;;9.80;99.90;;;;;;4891151;29;20400;-83
2022/11/23 10:50:34;;;;;;;2.55;0.20;;;9.80;99.90;;;;;;4873325;29;20032;-79
2022/11/23 10:53:09;;;;;;;2.10;0.20;;;9.90;99.90;;;;;;4889113;29;20040;-79
2022/11/23 10:55:53;;;;;;;2.53;0.20;;;9.80;99.90;;;;;;4887012;29;20315;-79
2022/11/23 10:58:26;;;;;;;4.93;0.30;;;9.90;99.90;;;;;;4891041;29;20076;-78
2022/11/23 11:01:04;;;;;;;4.53;0.40;;;9.90;99.90;;;;;;4890504;29;20067;-84
2022/11/23 11:03:32;;;;;;;7.03;0.38;;;9.90;99.90;;;;;;4886870;29;20036;-80
2022/11/23 11:05:58;;;;;;;4.20;0.30;;;9.80;99.90;;;;;;4875346;29;20434;-82
2022/11/23 11:08:33;;;;;;;2.20;0.20;;;9.90;99.90;;;;;;4901354;29;20116;-78
2022/11/23 11:11:06;;;;;;;3.20;0.20;;;10.00;99.90;;;;;;4904980;29;20480;-85
2022/11/23 11:13:46;;;;;;;1.92;0.20;;;10.00;99.90;;;;;;4889229;29;20076;-80
2022/11/23 11:16:26;;;;;;;5.10;0.22;;;10.00;99.90;;;;;;4889042;29;20025;-80
2022/11/23 11:18:52;;;;;;;3.50;0.20;;;10.10;99.90;;;;;;4891099;29;20040;-83
2022/11/23 11:21:26;;;;;;;3.05;0.30;;;10.10;99.90;;;;;;4892162;29;20036;-86
2022/11/23 11:24:03;;;;;;;6.85;0.60;;;10.10;99.90;;;;;;4867317;29;20032;-81
2022/11/23 11:26:31;;;;;;;4.03;0.32;;;10.10;99.90;;;;;;4904204;29;20024;-84
2022/11/23 11:29:18;;;;;;;5.07;0.30;;;10.20;99.90;;;;;;4905243;29;20116;-87
2022/11/23 11:31:58;;;;;;;3.42;0.30;;;10.20;99.90;;;;;;4869519;29;20048;-79
2022/11/23 11:34:50;;;;;;;2.78;0.20;;;10.20;99.90;;;;;;4873104;29;20120;-83
2022/11/23 11:37:30;;;;;;;3.75;0.28;;;10.30;99.90;;;;;;4838197;29;20137;-85
2022/11/23 11:40:05;;;;;;;4.88;0.32;;;10.30;99.90;;;;;;4853660;29;20103;-83
2022/11/23 11:42:35;;;;;;;4.60;0.20;;;10.40;99.90;;;;;;4853896;29;20145;-79
2022/11/23 11:45:05;;;;;;;4.00;0.43;;;10.40;99.90;;;;;;4854219;29;20490;-82
2022/11/23 11:47:36;;;;;;;2.97;0.30;;;10.50;99.90;;;;;;4837948;29;20056;-86
2022/11/23 11:50:15;;;;;;;3.28;0.20;;;10.50;99.90;;;;;;4854164;29;20042;-80
2022/11/23 11:52:45;;;;;;;5.27;0.30;;;10.40;99.90;;;;;;4853401;29;20045;-79
2022/11/23 11:55:45;;;;;;;6.35;0.25;;;10.50;99.90;;;;;;4853575;29;20079;-78
2022/11/23 11:58:15;;;;;;;4.05;0.20;;;10.50;99.90;;;;;;4854698;29;20096;-77
2022/11/23 12:00:41;;;;;;;4.13;0.57;;;10.60;99.90;;;;;;4838519;29;20097;-80
2022/11/23 12:03:19;;;;;;;2.35;0.30;;;10.60;99.90;;;;;;4845751;29;20034;-81
2022/11/23 12:05:51;;;;;;;1.98;0.20;;;10.60;99.90;;;;;;4838343;29;20069;-85
2022/11/23 12:08:20;;;;;;;2.78;0.30;;;10.60;99.90;;;;;;4853064;29;20045;-80
2022/11/23 12:10:51;;;;;;;2.17;0.17;;;10.50;99.90;;;;;;4853318;29;20037;-80
2022/11/23 12:13:21;;;;;;;3.35;0.55;;;10.50;99.90;;;;;;4852733;29;20046;-87
2022/11/23 12:16:08;;;;;;;3.53;0.30;;;10.40;99.90;;;;;;4836452;29;20451;-83
2022/11/23 12:18:43;;;;;;;4.38;0.30;;;10.40;99.90;;;;;;4853733;29;20050;-79
2022/11/23 12:21:26;;;;;;;3.72;0.20;;;10.50;99.90;;;;;;4825500;29;20415;-82
2022/11/23 12:24:24;;;;;;;3.85;0.30;;;10.60;99.90;;;;;;4837787;29;20080;-83
2022/11/23 12:27:04;;;;;;;4.47;0.50;;;10.50;99.90;;;;;;4853635;29;20561;-80
2022/11/23 12:30:00;;;;;;;3.45;0.22;;;10.60;99.90;;;;;;4822251;29;20040;-79
2022/11/23 12:32:58;;;;;;;1.85;0.10;;;10.50;99.90;;;;;;4850929;29;20115;-81
2022/11/23 12:35:23;;;;;;;2.50;0.20;;;10.40;99.90;;;;;;4869679;29;20188;-83
2022/11/23 12:38:08;;;;;;;3.70;0.20;;;10.40;99.90;;;;;;4887341;29;20127;-81
2022/11/23 12:40:53;;;;;;;3.67;0.20;;;10.40;99.90;;;;;;4885873;29;20067;-82
2022/11/23 12:43:36;;;;;;;0.70;0.10;;;10.40;99.90;;;;;;4886238;29;20124;-78
2022/11/23 12:46:32;;;;;;;2.92;0.20;;;10.40;99.90;;;;;;4887181;29;20088;-83
2022/11/23 12:49:22;;;;;;;3.75;0.20;;;10.40;99.90;;;;;;4888753;29;20127;-85
2022/11/23 12:52:09;;;;;;;2.22;0.20;;;10.40;99.90;;;;;;4888194;29;20364;-81
2022/11/23 12:54:53;;;;;;;3.05;0.20;;;10.40;99.90;;;;;;4886996;29;20418;-83
2022/11/23 12:57:36;;;;;;;3.95;0.20;;;10.40;99.90;;;;;;4883593;29;20025;-85
2022/11/23 13:00:16;;;;;;;3.22;0.75;;;10.40;99.90;;;;;;4902698;29;20396;-87
2022/11/23 13:02:57;;;;;;;3.75;0.20;;;10.50;99.90;;;;;;4903289;29;20032;-84
2022/11/23 13:05:40;;;;;;;3.65;0.20;;;10.40;99.90;;;;;;4867776;29;20650;-87
2022/11/23 13:08:18;;;;;;;4.60;0.20;;;10.40;99.90;;;;;;4903087;29;20036;-86
2022/11/23 13:11:06;;;;;;;1.98;0.20;;;10.40;99.90;;;;;;4886701;29;20036;-86
2022/11/23 13:13:50;;;;;;;3.03;0.20;;;10.40;99.90;;;;;;4887371;29;20048;-85